createdAt,value
2023-02-24T00:02:06.105Z,72.70
2023-02-24T00:04:34.959Z,72.70
2023-02-24T00:07:03.023Z,72.70
2023-02-24T00:09:30.860Z,72.80
2023-02-24T00:11:57.938Z,72.90
2023-02-24T00:14:26.258Z,73.00
2023-02-24T00:16:53.623Z,72.90
2023-02-24T00:19:22.549Z,72.70
2023-02-24T00:21:50.442Z,72.70
2023-02-24T00:24:17.817Z,72.60
2023-02-24T00:26:45.817Z,72.60
2023-02-24T00:29:13.829Z,72.60
2023-02-24T00:31:43.199Z,72.50
2023-02-24T00:34:13.049Z,72.50
2023-02-24T00:36:40.045Z,72.70
2023-02-24T00:39:10.895Z,72.80
2023-02-24T00:41:40.358Z,72.90
2023-02-24T00:44:09.296Z,72.90
2023-02-24T00:46:37.827Z,72.70
2023-02-24T00:49:06.053Z,72.60
2023-02-24T00:51:37.584Z,72.60
2023-02-24T00:54:05.619Z,72.40
2023-02-24T00:56:32.585Z,72.40
2023-02-24T00:59:00.255Z,72.30
2023-02-24T01:01:31.449Z,72.20
2023-02-24T01:04:00.293Z,72.20
2023-02-24T01:06:29.690Z,72.10
2023-02-24T01:08:57.943Z,71.90
2023-02-24T01:11:44.519Z,71.80
2023-02-24T01:14:13.897Z,71.70
2023-02-24T01:16:45.012Z,71.70
2023-02-24T01:19:12.710Z,72.00
2023-02-24T01:21:39.923Z,72.20
2023-02-24T01:24:06.793Z,72.10
2023-02-24T01:26:33.965Z,72.20
2023-02-24T01:29:00.819Z,72.10
2023-02-24T01:31:28.988Z,72.00
2023-02-24T01:33:56.336Z,72.10
2023-02-24T01:36:25.685Z,72.00
2023-02-24T01:38:52.859Z,72.30
2023-02-24T01:41:21.351Z,72.60
2023-02-24T01:44:09.835Z,72.80
2023-02-24T01:46:41.390Z,73.00
2023-02-24T01:49:13.916Z,73.00
2023-02-24T01:51:46.288Z,73.10
2023-02-24T01:54:15.468Z,73.10
2023-02-24T01:56:43.013Z,73.10
2023-02-24T01:59:10.481Z,73.30
2023-02-24T02:01:41.220Z,73.30
2023-02-24T02:04:16.953Z,73.30
2023-02-24T02:06:44.888Z,73.50
2023-02-24T02:09:12.525Z,73.50
2023-02-24T02:11:39.434Z,73.30
2023-02-24T02:14:06.413Z,73.00
2023-02-24T02:16:51.997Z,73.10
2023-02-24T02:19:33.442Z,73.20
2023-02-24T02:22:17.700Z,72.90
2023-02-24T02:24:50.549Z,72.70
2023-02-24T02:27:23.613Z,72.40
2023-02-24T02:30:13.772Z,72.50
2023-02-24T02:32:53.550Z,72.70
2023-02-24T02:35:20.559Z,72.80
2023-02-24T02:38:04.338Z,72.90
2023-02-24T02:40:45.042Z,72.80
2023-02-24T02:43:11.889Z,72.70
2023-02-24T02:45:41.009Z,72.90
2023-02-24T02:48:17.365Z,72.90
2023-02-24T02:50:53.534Z,72.80
2023-02-24T02:53:49.784Z,72.90
2023-02-24T02:56:20.033Z,72.90
2023-02-24T02:58:48.682Z,72.90
2023-02-24T03:01:16.761Z,72.80
2023-02-24T03:03:47.127Z,72.80
2023-02-24T03:06:16.450Z,72.70
2023-02-24T03:08:49.346Z,72.80
2023-02-24T03:11:17.135Z,72.80
2023-02-24T03:13:45.847Z,73.00
2023-02-24T03:16:15.009Z,73.10
2023-02-24T03:18:45.018Z,73.00
2023-02-24T03:21:15.364Z,72.90
2023-02-24T03:23:47.241Z,73.00
2023-02-24T03:26:34.414Z,73.10
2023-02-24T03:29:01.327Z,73.10
2023-02-24T03:31:30.927Z,73.00
2023-02-24T03:34:03.793Z,73.00
2023-02-24T03:36:31.008Z,73.00
2023-02-24T03:38:58.720Z,73.00
2023-02-24T03:41:30.798Z,72.90
2023-02-24T03:43:59.115Z,72.90
2023-02-24T03:46:26.333Z,73.20
2023-02-24T03:48:58.930Z,73.40
2023-02-24T03:51:26.766Z,73.50
2023-02-24T03:54:09.244Z,73.30
2023-02-24T03:56:46.022Z,73.30
2023-02-24T03:59:16.035Z,73.40
2023-02-24T04:01:56.398Z,73.20
2023-02-24T04:04:31.830Z,73.30
2023-02-24T04:07:02.585Z,73.10
2023-02-24T04:09:50.792Z,73.10
2023-02-24T04:12:20.540Z,72.90
2023-02-24T04:15:09.406Z,73.10
2023-02-24T04:17:40.513Z,73.20
2023-02-24T04:20:21.046Z,73.00
2023-02-24T04:22:50.287Z,73.00
2023-02-24T04:25:19.794Z,72.90
2023-02-24T04:27:48.068Z,72.70
2023-02-24T04:30:15.368Z,72.80
2023-02-24T04:32:45.080Z,73.00
2023-02-24T04:35:13.478Z,73.10
2023-02-24T04:37:40.436Z,73.10
2023-02-24T04:40:13.762Z,73.20
2023-02-24T04:42:49.578Z,73.40
2023-02-24T04:45:17.884Z,73.50
2023-02-24T04:47:56.373Z,73.40
2023-02-24T04:50:24.460Z,73.30
2023-02-24T04:52:52.624Z,73.30
2023-02-24T04:55:21.505Z,73.40
2023-02-24T04:57:49.757Z,73.10
2023-02-24T05:00:21.895Z,72.90
2023-02-24T05:02:52.283Z,72.80
2023-02-24T05:05:26.297Z,72.60
2023-02-24T05:07:54.677Z,72.60
2023-02-24T05:10:28.523Z,72.60
2023-02-24T05:12:58.671Z,72.50
2023-02-24T05:15:32.991Z,72.50
2023-02-24T05:18:01.218Z,72.60
2023-02-24T05:20:47.245Z,72.30
2023-02-24T05:23:14.156Z,72.10
2023-02-24T05:25:43.120Z,72.20
2023-02-24T05:28:10.123Z,72.20
2023-02-24T05:30:37.295Z,72.30
2023-02-24T05:33:04.839Z,72.40
2023-02-24T05:35:32.589Z,72.70
2023-02-24T05:37:59.614Z,72.80
2023-02-24T05:40:27.207Z,72.50
2023-02-24T05:42:54.260Z,72.50
2023-02-24T05:45:21.121Z,72.70
2023-02-24T05:47:48.006Z,72.70
2023-02-24T05:50:14.979Z,72.60
2023-02-24T05:52:45.731Z,72.50
2023-02-24T05:55:14.187Z,72.20
2023-02-24T05:57:41.459Z,72.20
2023-02-24T06:00:14.707Z,72.30
2023-02-24T06:02:49.535Z,72.50
2023-02-24T06:05:26.130Z,72.70
2023-02-24T06:08:03.150Z,72.90
2023-02-24T06:10:31.879Z,73.00
2023-02-24T06:12:58.775Z,72.90
2023-02-24T06:15:25.954Z,72.90
2023-02-24T06:17:56.662Z,73.10
2023-02-24T06:20:26.861Z,73.20
2023-02-24T06:22:55.428Z,73.30
2023-02-24T06:25:26.287Z,73.40
2023-02-24T06:27:55.737Z,73.40
2023-02-24T06:30:23.686Z,73.40
2023-02-24T06:32:51.830Z,73.50
2023-02-24T06:35:19.588Z,73.40
2023-02-24T06:37:47.213Z,73.40
2023-02-24T06:40:17.886Z,73.30
2023-02-24T06:42:46.158Z,73.20
2023-02-24T06:45:13.480Z,73.20
2023-02-24T06:47:41.051Z,73.30
2023-02-24T06:50:08.247Z,73.50
2023-02-24T06:52:36.510Z,73.50
2023-02-24T06:55:06.837Z,73.40
2023-02-24T06:57:34.589Z,73.40
2023-02-24T07:00:16.972Z,73.60
2023-02-24T07:02:43.914Z,73.60
2023-02-24T07:05:14.786Z,73.70
2023-02-24T07:07:46.109Z,73.80
2023-02-24T07:10:16.175Z,74.00
2023-02-24T07:12:43.085Z,74.00
2023-02-24T07:15:10.283Z,73.90
2023-02-24T07:17:37.177Z,73.80
2023-02-24T07:20:12.366Z,73.70
2023-02-24T07:22:39.223Z,73.50
2023-02-24T07:25:07.388Z,73.30
2023-02-24T07:27:34.282Z,73.40
2023-02-24T07:30:06.235Z,73.50
2023-02-24T07:32:33.254Z,73.60
2023-02-24T07:35:00.172Z,73.70
2023-02-24T07:37:31.816Z,73.80
2023-02-24T07:39:58.914Z,73.70
2023-02-24T07:42:26.658Z,73.40
2023-02-24T07:44:55.238Z,73.30
2023-02-24T07:47:23.052Z,73.40
2023-02-24T07:49:51.554Z,73.40
2023-02-24T07:52:18.460Z,73.30
2023-02-24T07:54:45.426Z,73.20
2023-02-24T07:57:14.373Z,73.30
2023-02-24T07:59:47.675Z,73.30
2023-02-24T08:02:15.312Z,73.60
2023-02-24T08:04:50.206Z,73.70
2023-02-24T08:07:25.387Z,73.70
2023-02-24T08:10:14.754Z,73.40
2023-02-24T08:12:44.634Z,73.10
2023-02-24T08:15:24.753Z,73.00
2023-02-24T08:17:59.762Z,73.10
2023-02-24T08:20:30.305Z,73.00
2023-02-24T08:22:57.259Z,73.20
2023-02-24T08:25:25.933Z,73.10
2023-02-24T08:28:12.282Z,73.10
2023-02-24T08:30:45.382Z,73.00
2023-02-24T08:33:20.293Z,72.90
2023-02-24T08:35:51.065Z,72.70
2023-02-24T08:38:19.020Z,72.60
2023-02-24T08:40:52.309Z,72.60
2023-02-24T08:43:35.590Z,72.50
2023-02-24T08:46:18.537Z,72.40
2023-02-24T08:48:48.066Z,71.90
2023-02-24T08:51:24.354Z,71.80
2023-02-24T08:53:55.012Z,71.40
2023-02-24T08:56:34.663Z,71.20
2023-02-24T08:59:06.275Z,70.70
2023-02-24T09:01:38.077Z,70.40
2023-02-24T09:04:07.486Z,70.30
2023-02-24T09:06:37.627Z,70.10
2023-02-24T09:09:23.075Z,70.20
2023-02-24T09:11:56.708Z,69.60
2023-02-24T09:14:28.421Z,69.20
2023-02-24T09:17:03.578Z,69.00
2023-02-24T09:19:49.497Z,68.70
2023-02-24T09:22:37.981Z,68.40
2023-02-24T09:25:27.019Z,68.10
2023-02-24T09:27:56.336Z,67.90
2023-02-24T09:30:37.360Z,67.70
2023-02-24T09:33:18.342Z,67.50
2023-02-24T09:35:49.547Z,67.30
2023-02-24T09:38:17.639Z,67.00
2023-02-24T09:40:54.593Z,66.80
2023-02-24T09:43:21.872Z,66.70
2023-02-24T09:45:58.694Z,66.60
2023-02-24T09:48:54.571Z,66.60
2023-02-24T09:51:23.208Z,66.60
2023-02-24T09:53:54.866Z,66.60
2023-02-24T09:56:42.705Z,66.60
2023-02-24T09:59:14.989Z,66.70
2023-02-24T10:01:55.179Z,66.80
2023-02-24T10:04:28.278Z,66.90
2023-02-24T10:06:59.142Z,66.90
2023-02-24T10:09:34.597Z,67.10
2023-02-24T10:12:21.986Z,67.30
2023-02-24T10:15:00.446Z,67.30
2023-02-24T10:17:40.472Z,67.50
2023-02-24T10:20:14.101Z,67.70
2023-02-24T10:22:52.985Z,67.90
2023-02-24T10:25:36.523Z,67.90
2023-02-24T10:28:12.381Z,68.00
2023-02-24T10:31:01.727Z,68.20
2023-02-24T10:33:37.941Z,68.20
2023-02-24T10:36:09.417Z,68.30
2023-02-24T10:38:37.595Z,68.20
2023-02-24T10:41:06.484Z,68.20
2023-02-24T10:43:44.034Z,68.20
2023-02-24T10:46:42.700Z,68.30
2023-02-24T10:49:16.991Z,68.20
2023-02-24T10:51:48.143Z,68.20
2023-02-24T10:54:33.432Z,68.10
2023-02-24T10:57:18.838Z,68.10
2023-02-24T11:00:19.080Z,68.30
2023-02-24T11:03:07.275Z,68.40
2023-02-24T11:05:56.609Z,68.50
2023-02-24T11:08:36.962Z,68.60
2023-02-24T11:11:20.294Z,68.50
2023-02-24T11:14:09.372Z,68.50
2023-02-24T11:17:07.508Z,68.20
2023-02-24T11:19:57.503Z,68.10
2023-02-24T11:22:28.164Z,67.80
2023-02-24T11:24:54.991Z,67.60
2023-02-24T11:27:23.482Z,67.50
2023-02-24T11:30:06.611Z,67.70
2023-02-24T11:32:40.188Z,67.70
2023-02-24T11:35:26.620Z,67.90
2023-02-24T11:38:09.812Z,67.80
2023-02-24T11:40:41.500Z,67.80
2023-02-24T11:43:18.659Z,67.40
2023-02-24T11:45:46.572Z,66.80
2023-02-24T11:48:17.444Z,66.60
2023-02-24T11:50:47.090Z,66.50
2023-02-24T11:53:20.645Z,66.50
2023-02-24T11:55:51.461Z,66.60
2023-02-24T11:58:23.974Z,66.50
2023-02-24T12:01:14.825Z,66.50
2023-02-24T12:03:46.127Z,66.40
2023-02-24T12:06:45.485Z,66.30
2023-02-24T12:09:15.690Z,66.20
2023-02-24T12:11:50.662Z,66.10
2023-02-24T12:14:31.072Z,66.00
2023-02-24T12:17:04.556Z,66.10
2023-02-24T12:19:42.289Z,66.20
2023-02-24T12:22:15.382Z,66.30
2023-02-24T12:24:47.494Z,66.40
2023-02-24T12:27:14.453Z,66.50
2023-02-24T12:29:48.717Z,66.60
2023-02-24T12:32:36.535Z,66.70
2023-02-24T12:35:12.319Z,66.80
2023-02-24T12:37:57.832Z,66.90
2023-02-24T12:40:31.146Z,67.00
2023-02-24T12:42:59.259Z,67.20
2023-02-24T12:45:29.127Z,67.50
2023-02-24T12:47:57.351Z,67.70
2023-02-24T12:50:37.321Z,67.80
2023-02-24T12:53:09.622Z,67.90
2023-02-24T12:55:36.450Z,68.00
2023-02-24T12:58:19.563Z,68.10
2023-02-24T13:00:46.451Z,68.10
2023-02-24T13:03:25.480Z,68.20
2023-02-24T13:06:02.829Z,68.20
2023-02-24T13:08:29.892Z,69.10
2023-02-24T13:11:05.509Z,68.70
2023-02-24T13:13:41.612Z,68.30
2023-02-24T13:16:11.589Z,68.20
2023-02-24T13:18:42.044Z,68.10
2023-02-24T13:21:14.811Z,68.10
2023-02-24T13:23:42.677Z,68.20
2023-02-24T13:26:10.661Z,68.30
2023-02-24T13:28:38.726Z,68.30
2023-02-24T13:31:07.399Z,68.30
2023-02-24T13:33:35.755Z,68.20
2023-02-24T13:36:13.987Z,68.20
2023-02-24T13:38:42.614Z,68.20
2023-02-24T13:41:21.909Z,68.20
2023-02-24T13:44:04.298Z,68.10
2023-02-24T13:46:48.442Z,68.00
2023-02-24T13:49:35.904Z,68.10
2023-02-24T13:52:06.181Z,68.30
2023-02-24T13:54:51.609Z,68.30
2023-02-24T13:57:18.525Z,68.30
2023-02-24T13:59:45.509Z,68.30
2023-02-24T14:02:20.479Z,68.20
2023-02-24T14:04:57.958Z,68.00
2023-02-24T14:07:29.756Z,67.80
2023-02-24T14:09:58.506Z,67.70
2023-02-24T14:12:27.706Z,67.60
2023-02-24T14:14:54.828Z,67.30
2023-02-24T14:17:29.024Z,67.30
2023-02-24T14:19:56.870Z,67.10
2023-02-24T14:22:23.784Z,66.80
2023-02-24T14:25:01.263Z,66.70
2023-02-24T14:27:28.298Z,66.50
2023-02-24T14:29:55.917Z,66.50
2023-02-24T14:32:24.720Z,66.50
2023-02-24T14:34:52.448Z,66.30
2023-02-24T14:37:24.043Z,66.10
2023-02-24T14:39:55.243Z,66.00
2023-02-24T14:42:22.425Z,65.90
2023-02-24T14:44:50.983Z,65.60
2023-02-24T14:47:19.559Z,65.40
2023-02-24T14:49:53.796Z,65.40
2023-02-24T14:52:40.066Z,65.20
2023-02-24T14:55:27.307Z,65.20
2023-02-24T14:58:00.104Z,65.40
2023-02-24T15:00:29.971Z,65.40
2023-02-24T15:03:02.415Z,65.50
2023-02-24T15:05:29.518Z,65.60
2023-02-24T15:07:58.667Z,65.70
2023-02-24T15:10:27.357Z,65.70
2023-02-24T15:12:59.190Z,65.60
2023-02-24T15:15:30.084Z,65.50
2023-02-24T15:17:58.572Z,65.20
2023-02-24T15:20:30.850Z,65.20
2023-02-24T15:22:58.428Z,65.20
2023-02-24T15:25:37.250Z,65.00
2023-02-24T15:28:26.453Z,65.10
2023-02-24T15:30:59.305Z,65.10
2023-02-24T15:33:29.225Z,65.20
2023-02-24T15:35:59.038Z,65.20
2023-02-24T15:38:30.630Z,65.20
2023-02-24T15:40:59.759Z,65.20
2023-02-24T15:43:32.809Z,65.30
2023-02-24T15:45:59.786Z,65.30
2023-02-24T15:48:28.763Z,65.40
2023-02-24T15:51:00.186Z,65.40
2023-02-24T15:53:27.220Z,65.40
2023-02-24T15:55:54.202Z,65.40
2023-02-24T15:58:22.218Z,65.40
2023-02-24T16:00:53.411Z,65.40
2023-02-24T16:03:20.513Z,65.50
2023-02-24T16:05:47.390Z,65.50
2023-02-24T16:08:17.235Z,65.60
2023-02-24T16:10:44.306Z,65.80
2023-02-24T16:13:24.483Z,65.80
2023-02-24T16:15:51.676Z,66.00
2023-02-24T16:18:22.164Z,66.00
2023-02-24T16:20:54.693Z,66.20
2023-02-24T16:23:22.682Z,66.30
2023-02-24T16:25:50.487Z,66.30
2023-02-24T16:28:19.146Z,66.60
2023-02-24T16:30:47.567Z,66.80
2023-02-24T16:33:15.677Z,66.90
2023-02-24T16:35:46.044Z,66.80
2023-02-24T16:38:15.243Z,66.90
2023-02-24T16:40:43.773Z,67.10
2023-02-24T16:43:11.020Z,67.30
2023-02-24T16:45:38.237Z,67.30
2023-02-24T16:48:06.888Z,67.50
2023-02-24T16:50:35.171Z,67.70
2023-02-24T16:53:02.185Z,68.00
2023-02-24T16:55:29.074Z,68.10
2023-02-24T16:57:56.040Z,68.30
2023-02-24T17:00:24.340Z,68.40
2023-02-24T17:02:51.895Z,68.60
2023-02-24T17:05:25.685Z,68.60
2023-02-24T17:07:53.834Z,68.70
2023-02-24T17:10:20.897Z,69.10
2023-02-24T17:12:47.849Z,69.40
2023-02-24T17:15:16.898Z,69.70
2023-02-24T17:17:43.757Z,70.00
2023-02-24T17:20:15.832Z,70.20
2023-02-24T17:22:43.135Z,70.40
2023-02-24T17:25:14.796Z,70.50
2023-02-24T17:27:41.715Z,70.60
2023-02-24T17:30:10.516Z,70.70
2023-02-24T17:32:37.409Z,70.80
2023-02-24T17:35:04.410Z,70.90
2023-02-24T17:37:31.230Z,71.20
2023-02-24T17:39:58.192Z,71.20
2023-02-24T17:42:25.090Z,71.50
2023-02-24T17:44:54.312Z,71.70
2023-02-24T17:47:21.232Z,72.00
2023-02-24T17:49:48.067Z,72.10
2023-02-24T17:52:15.526Z,72.40
2023-02-24T17:54:42.596Z,72.70
2023-02-24T17:57:09.622Z,72.90
2023-02-24T17:59:37.238Z,73.10
2023-02-24T18:02:04.569Z,73.30
2023-02-24T18:04:31.546Z,73.40
2023-02-24T18:06:58.429Z,73.60
2023-02-24T18:09:25.384Z,73.90
2023-02-24T18:11:52.244Z,74.00
2023-02-24T18:14:19.423Z,74.20
2023-02-24T18:16:46.322Z,74.40
2023-02-24T18:19:13.205Z,74.70
2023-02-24T18:21:40.108Z,74.90
2023-02-24T18:24:07.157Z,75.00
2023-02-24T18:26:34.037Z,75.30
2023-02-24T18:29:00.987Z,75.30
2023-02-24T18:31:30.040Z,75.40
2023-02-24T18:33:57.417Z,75.40
2023-02-24T18:36:24.698Z,75.80
2023-02-24T18:38:51.708Z,76.10
2023-02-24T18:41:23.494Z,76.40
2023-02-24T18:43:51.705Z,76.70
2023-02-24T18:46:19.692Z,77.00
2023-02-24T18:48:47.874Z,77.10
2023-02-24T18:51:17.353Z,77.20
2023-02-24T18:53:44.646Z,77.20
2023-02-24T18:56:18.672Z,77.40
2023-02-24T18:58:46.474Z,77.30
2023-02-24T19:01:18.411Z,77.40
2023-02-24T19:03:45.549Z,77.60
2023-02-24T19:06:12.575Z,77.70
2023-02-24T19:08:39.906Z,77.90
2023-02-24T19:11:10.942Z,78.10
2023-02-24T19:13:38.336Z,78.20
2023-02-24T19:16:05.651Z,78.30
2023-02-24T19:18:32.628Z,78.20
2023-02-24T19:20:59.863Z,78.10
2023-02-24T19:23:26.993Z,78.20
2023-02-24T19:25:53.988Z,78.20
2023-02-24T19:28:21.059Z,78.30
2023-02-24T19:30:48.073Z,78.30
2023-02-24T19:33:15.221Z,78.20
2023-02-24T19:35:42.935Z,78.40
2023-02-24T19:38:13.280Z,78.40
2023-02-24T19:40:40.374Z,78.40
2023-02-24T19:43:07.364Z,78.20
2023-02-24T19:45:36.278Z,78.20
2023-02-24T19:48:03.692Z,78.20
2023-02-24T19:50:30.556Z,78.20
2023-02-24T19:52:57.426Z,78.20
2023-02-24T19:55:24.772Z,78.20
2023-02-24T19:57:55.144Z,77.90
2023-02-24T20:00:23.799Z,78.00
2023-02-24T20:02:51.348Z,78.00
2023-02-24T20:05:18.298Z,78.00
2023-02-24T20:07:45.253Z,78.10
2023-02-24T20:10:12.298Z,78.20
2023-02-24T20:12:39.214Z,78.40
2023-02-24T20:15:07.404Z,78.40
2023-02-24T20:17:35.224Z,78.50
2023-02-24T20:20:02.217Z,78.60
2023-02-24T20:22:29.223Z,78.70
2023-02-24T20:24:56.269Z,78.90
2023-02-24T20:27:23.433Z,78.80
2023-02-24T20:29:53.109Z,78.80
2023-02-24T20:32:20.660Z,79.00
2023-02-24T20:34:47.770Z,78.80
2023-02-24T20:37:14.765Z,78.90
2023-02-24T20:39:42.388Z,78.70
2023-02-24T20:42:09.323Z,78.30
2023-02-24T20:44:36.193Z,78.70
2023-02-24T20:47:04.248Z,78.80
2023-02-24T20:49:31.102Z,78.80
2023-02-24T20:51:57.965Z,78.80
2023-02-24T20:54:25.288Z,78.90
2023-02-24T20:56:52.239Z,78.60
2023-02-24T20:59:20.458Z,78.70
2023-02-24T21:01:48.519Z,78.90
2023-02-24T21:04:16.538Z,79.00
2023-02-24T21:06:43.462Z,79.00
2023-02-24T21:09:12.174Z,78.90
2023-02-24T21:11:39.166Z,78.90
2023-02-24T21:14:07.220Z,78.80
2023-02-24T21:16:37.228Z,78.80
2023-02-24T21:19:04.163Z,78.70
2023-02-24T21:21:31.159Z,78.70
2023-02-24T21:23:58.614Z,78.40
2023-02-24T21:26:27.254Z,78.80
2023-02-24T21:28:57.255Z,78.80
2023-02-24T21:31:25.412Z,78.90
2023-02-24T21:33:53.142Z,79.00
2023-02-24T21:36:27.001Z,79.00
2023-02-24T21:38:54.766Z,78.70
2023-02-24T21:41:21.744Z,78.70
2023-02-24T21:43:51.623Z,78.60
2023-02-24T21:46:19.774Z,78.70
2023-02-24T21:48:47.941Z,78.50
2023-02-24T21:51:15.296Z,78.50
2023-02-24T21:53:44.584Z,78.50
2023-02-24T21:56:18.803Z,78.50
2023-02-24T21:58:49.978Z,78.50
2023-02-24T22:01:18.098Z,78.40
2023-02-24T22:03:45.021Z,78.70
2023-02-24T22:06:13.228Z,78.60
2023-02-24T22:08:44.532Z,78.70
2023-02-24T22:11:15.557Z,78.80
2023-02-24T22:13:49.050Z,78.80
2023-02-24T22:16:28.178Z,79.10
2023-02-24T22:19:00.414Z,79.10
2023-02-24T22:21:34.334Z,79.20
2023-02-24T22:24:08.735Z,79.30
2023-02-24T22:26:36.745Z,79.40
2023-02-24T22:29:03.626Z,79.50
2023-02-24T22:31:31.791Z,79.50
2023-02-24T22:33:59.040Z,79.50
2023-02-24T22:36:27.774Z,79.50
2023-02-24T22:38:58.419Z,79.60
2023-02-24T22:41:27.251Z,79.60
2023-02-24T22:43:54.205Z,79.60
2023-02-24T22:46:24.216Z,79.50
2023-02-24T22:48:51.426Z,79.40
2023-02-24T22:51:19.066Z,79.40
2023-02-24T22:53:47.022Z,79.50
2023-02-24T22:56:15.365Z,79.60
2023-02-24T22:58:42.286Z,79.80
2023-02-24T23:01:13.571Z,79.80
2023-02-24T23:03:41.114Z,79.80
2023-02-24T23:06:09.697Z,79.90
2023-02-24T23:08:38.694Z,79.90
2023-02-24T23:11:07.278Z,79.90
2023-02-24T23:13:35.530Z,79.90
2023-02-24T23:16:03.835Z,79.90
2023-02-24T23:18:31.712Z,79.80
2023-02-24T23:21:03.402Z,79.80
2023-02-24T23:23:31.206Z,79.90
2023-02-24T23:25:58.648Z,80.00
2023-02-24T23:28:26.176Z,80.10
2023-02-24T23:30:53.868Z,79.90
2023-02-24T23:33:21.755Z,79.90
2023-02-24T23:35:48.817Z,80.00
2023-02-24T23:38:16.040Z,80.10
2023-02-24T23:40:49.906Z,80.00
2023-02-24T23:43:17.682Z,79.90
2023-02-24T23:45:44.766Z,80.00
2023-02-24T23:48:12.754Z,80.10
2023-02-24T23:50:40.313Z,80.10
2023-02-24T23:53:07.890Z,79.80
2023-02-24T23:55:35.878Z,79.70
2023-02-24T23:58:03.727Z,79.70
